チュニス の空港の天気 - METARとTAF

チュニス・カルタゴ国際空港 ( DTTA / TUN ) - チュニジア チュニス
飛行場実況気象(Metar)
観測時間01/23 04:30 CET (01/23 03:30 UTC)
風向・風速西南西 7m/s
視程10km以上
天気現象
少しの雲 雲底高度 790m
気温15℃
湿度72%
気圧1020hPa
METARDTTA 230330Z 24013KT 9999 FEW026 15/10 Q1020 NOSIG
過去の天気等 Google飛行場航空写真 Wunderground天気予報

過去48時間のMETAR

飛行場予報(TAF)
発表時間: 1/23 00:00 CET (1/22 23:00 UTC)
予報対象時間: 23日1時 CET ~ 24日1時 CET
風向・風速西北西 10m/s 瞬間風速 19m/s
視程10km以上
少しの雲 雲底高度 790m
23日18時 CET ~ 23日20時 CET に徐々に
風向・風速西北西 8m/s
TAF DTTA 222300Z 2300/2324 30020G37KT 9999 FEW026
BECMG 2317/2319 30015KT